Time;durP1;ratioP1;P1;durP2;ratioP2;P2;SDS_P1;SDS_P2;PMS_P1;PMS_P2;Temp;Humidity;BMP_temperature;BMP_pressure;BME280_temperature;BME280_humidity;BME280_pressure;Samples;Min_cycle;Max_cycle;Signal;HPM_P1;HPM_P2
2022/03/09 00:00:33;;;;;;;12.35;6.07;;;10.70;62.80;;;;;;5069246;28;20036;-76
2022/03/09 00:02:59;;;;;;;12.35;6.47;;;10.70;63.40;;;;;;5087866;28;20070;-76
2022/03/09 00:05:25;;;;;;;10.48;5.97;;;10.70;62.90;;;;;;5090491;28;20024;-76
2022/03/09 00:07:51;;;;;;;12.10;6.00;;;10.70;63.00;;;;;;5078019;28;20029;-76
2022/03/09 00:10:17;;;;;;;9.95;5.47;;;10.70;63.00;;;;;;5092773;28;20028;-76
2022/03/09 00:12:43;;;;;;;10.10;5.50;;;10.60;62.90;;;;;;5073803;28;20107;-78
2022/03/09 00:15:10;;;;;;;7.78;5.60;;;10.60;62.90;;;;;;5073608;28;20039;-77
2022/03/09 00:17:36;;;;;;;8.63;5.75;;;10.60;63.00;;;;;;5056957;28;20040;-77
2022/03/09 00:20:04;;;;;;;8.27;5.43;;;10.60;63.00;;;;;;5088684;28;20028;-78
2022/03/09 00:22:29;;;;;;;12.80;5.90;;;10.60;63.00;;;;;;5088475;28;20475;-78
2022/03/09 00:24:55;;;;;;;10.70;5.80;;;10.60;63.00;;;;;;5088361;28;20035;-77
2022/03/09 00:27:21;;;;;;;12.02;5.13;;;10.60;63.60;;;;;;5088643;28;20028;-77
2022/03/09 00:29:47;;;;;;;13.48;5.57;;;10.60;63.00;;;;;;5050655;28;20105;-77
2022/03/09 00:32:14;;;;;;;10.60;5.57;;;10.60;63.00;;;;;;5069679;28;20060;-77
2022/03/09 00:34:40;;;;;;;14.90;5.68;;;10.60;63.00;;;;;;5069097;28;20117;-77
2022/03/09 00:37:06;;;;;;;7.97;4.95;;;10.60;63.00;;;;;;5068085;28;20479;-76
2022/03/09 00:39:32;;;;;;;13.05;6.03;;;10.60;63.00;;;;;;5081259;28;20050;-76
2022/03/09 00:41:59;;;;;;;13.27;5.80;;;10.60;63.00;;;;;;5087635;28;20028;-75
2022/03/09 00:44:25;;;;;;;10.30;4.93;;;10.60;63.00;;;;;;5086697;28;20028;-76
2022/03/09 00:46:51;;;;;;;7.75;4.00;;;10.60;63.10;;;;;;5086828;28;20067;-75
2022/03/09 00:49:17;;;;;;;10.27;4.55;;;10.60;63.10;;;;;;5086839;28;20081;-75
2022/03/09 00:51:43;;;;;;;8.75;4.72;;;10.60;63.20;;;;;;5068430;28;20035;-75
2022/03/09 00:54:09;;;;;;;9.68;5.80;;;10.60;63.20;;;;;;5053220;28;20057;-76
2022/03/09 00:56:35;;;;;;;10.15;5.00;;;10.60;63.20;;;;;;5090147;28;20040;-74
2022/03/09 00:59:01;;;;;;;13.90;4.68;;;10.60;63.20;;;;;;5090065;28;20028;-75
2022/03/09 01:01:27;;;;;;;11.00;5.05;;;10.60;63.30;;;;;;5090598;28;20028;-76
2022/03/09 01:03:53;;;;;;;12.65;4.80;;;10.50;63.10;;;;;;5072367;28;20073;-76
2022/03/09 01:06:19;;;;;;;9.90;4.03;;;10.50;63.20;;;;;;5072700;28;20411;-76
2022/03/09 01:08:45;;;;;;;15.32;4.72;;;10.50;63.20;;;;;;5092676;28;20039;-76
2022/03/09 01:11:11;;;;;;;13.13;5.03;;;10.50;63.20;;;;;;5074689;28;20028;-75
2022/03/09 01:13:37;;;;;;;9.80;4.10;;;10.40;63.10;;;;;;5092225;28;20044;-76
2022/03/09 01:16:04;;;;;;;8.60;3.75;;;10.40;63.20;;;;;;5091329;28;20064;-76
2022/03/09 01:18:30;;;;;;;9.13;3.85;;;10.40;63.20;;;;;;5077232;28;20027;-76
2022/03/09 01:20:55;;;;;;;9.52;3.97;;;10.40;63.30;;;;;;5110781;28;20035;-75
2022/03/09 01:23:22;;;;;;;13.07;4.07;;;10.40;63.30;;;;;;5110452;28;20065;-76
2022/03/09 01:25:48;;;;;;;9.00;3.45;;;10.40;63.30;;;;;;5091921;28;20032;-75
2022/03/09 01:28:14;;;;;;;8.90;4.40;;;10.40;63.30;;;;;;5110319;28;20038;-75
2022/03/09 01:30:40;;;;;;;6.78;4.30;;;10.40;63.40;;;;;;5091878;28;20023;-75
2022/03/09 01:33:06;;;;;;;7.70;3.60;;;10.30;63.20;;;;;;5092064;28;20780;-76
2022/03/09 01:35:32;;;;;;;9.27;3.33;;;10.30;63.20;;;;;;5109981;28;20031;-76
2022/03/09 01:37:58;;;;;;;10.32;5.00;;;10.30;63.30;;;;;;5091665;28;20047;-76
2022/03/09 01:40:24;;;;;;;10.05;4.05;;;10.30;63.30;;;;;;5110079;28;20031;-76
2022/03/09 01:42:50;;;;;;;11.20;3.45;;;10.20;63.70;;;;;;5109657;28;20035;-75
2022/03/09 01:45:18;;;;;;;7.53;3.15;;;10.30;63.30;;;;;;5074555;28;20052;-75
2022/03/09 01:47:44;;;;;;;9.35;3.47;;;10.20;63.20;;;;;;5109376;28;20139;-76
2022/03/09 01:50:10;;;;;;;7.53;3.05;;;10.20;63.20;;;;;;5109795;28;20036;-77
2022/03/09 01:52:39;;;;;;;10.63;3.50;;;10.20;63.30;;;;;;5109709;28;20039;-75
2022/03/09 01:55:05;;;;;;;12.30;3.72;;;10.20;63.30;;;;;;5109819;28;20394;-75
2022/03/09 01:57:32;;;;;;;9.80;4.18;;;10.20;63.40;;;;;;5091397;28;20035;-76
2022/03/09 01:59:58;;;;;;;10.43;4.03;;;10.10;63.20;;;;;;5109247;28;20172;-75
2022/03/09 02:02:24;;;;;;;10.40;2.97;;;10.10;63.30;;;;;;5109658;28;20587;-75
2022/03/09 02:04:51;;;;;;;8.88;3.20;;;10.10;63.30;;;;;;5074620;28;20043;-75
2022/03/09 02:07:17;;;;;;;10.90;2.90;;;10.00;63.20;;;;;;5108286;28;20020;-77
2022/03/09 02:09:46;;;;;;;10.43;3.38;;;10.00;63.20;;;;;;5093920;28;20035;-77
2022/03/09 02:12:17;;;;;;;6.38;2.35;;;10.00;63.30;;;;;;5089246;28;20024;-77
2022/03/09 02:14:51;;;;;;;9.23;3.10;;;10.00;63.30;;;;;;5088575;28;20056;-76
2022/03/09 02:17:19;;;;;;;11.68;3.20;;;10.00;63.40;;;;;;5088791;28;20040;-78
2022/03/09 02:19:48;;;;;;;11.15;2.83;;;10.00;63.40;;;;;;5088955;28;20028;-77
2022/03/09 02:22:33;;;;;;;8.25;2.58;;;9.90;63.30;;;;;;5088719;28;20027;-77
2022/03/09 02:25:01;;;;;;;9.40;3.35;;;10.00;63.50;;;;;;5070310;28;20146;-77
2022/03/09 02:27:27;;;;;;;10.77;2.90;;;9.90;63.30;;;;;;5088867;28;20521;-77
2022/03/09 02:29:54;;;;;;;9.32;2.70;;;9.90;63.30;;;;;;5070128;28;20475;-76
2022/03/09 02:32:21;;;;;;;9.43;3.22;;;9.90;63.30;;;;;;5070585;28;20024;-76
2022/03/09 02:34:48;;;;;;;13.48;2.83;;;9.90;63.30;;;;;;5070526;28;20590;-77
2022/03/09 02:37:14;;;;;;;8.38;2.55;;;9.90;63.30;;;;;;5070444;28;20036;-77
2022/03/09 02:39:40;;;;;;;7.97;2.58;;;9.90;63.30;;;;;;5070009;28;20028;-77
2022/03/09 02:42:07;;;;;;;8.68;2.47;;;9.90;63.40;;;;;;5089397;28;20058;-77
2022/03/09 02:44:33;;;;;;;7.68;3.53;;;9.90;63.40;;;;;;5088232;28;20024;-76
2022/03/09 02:46:59;;;;;;;10.55;2.50;;;9.90;63.40;;;;;;5071561;28;20138;-75
2022/03/09 02:49:25;;;;;;;9.55;2.67;;;9.80;63.30;;;;;;5090440;28;20414;-75
2022/03/09 02:51:51;;;;;;;9.95;2.40;;;9.90;63.50;;;;;;5091306;28;20122;-76
2022/03/09 02:54:18;;;;;;;7.47;2.83;;;9.80;63.30;;;;;;5091464;28;20028;-75
2022/03/09 02:56:44;;;;;;;9.18;2.40;;;9.80;63.40;;;;;;5073168;28;20071;-75
2022/03/09 02:59:10;;;;;;;7.38;2.80;;;9.80;63.40;;;;;;5072990;28;20047;-75
2022/03/09 03:01:36;;;;;;;5.88;2.40;;;9.80;63.50;;;;;;5091149;28;20043;-75
2022/03/09 03:04:02;;;;;;;8.73;2.50;;;9.80;63.50;;;;;;5091321;28;20077;-75
2022/03/09 03:06:29;;;;;;;8.98;2.17;;;9.80;63.50;;;;;;5090790;28;20024;-75
2022/03/09 03:08:55;;;;;;;8.02;2.33;;;9.80;63.60;;;;;;5072677;28;20028;-75
2022/03/09 03:11:20;;;;;;;5.97;2.35;;;9.70;63.40;;;;;;5090890;28;20039;-75
2022/03/09 03:13:48;;;;;;;4.65;1.92;;;9.70;63.50;;;;;;5090615;28;20023;-75
2022/03/09 03:16:15;;;;;;;5.45;2.00;;;9.70;63.50;;;;;;5072736;28;20501;-76
2022/03/09 03:18:43;;;;;;;6.35;2.80;;;9.70;63.50;;;;;;5071286;28;20089;-75
2022/03/09 03:21:09;;;;;;;7.13;2.15;;;9.70;63.50;;;;;;5090507;28;20090;-75
2022/03/09 03:23:35;;;;;;;12.23;3.58;;;9.70;63.60;;;;;;5090347;28;20028;-75
2022/03/09 03:26:03;;;;;;;8.30;2.25;;;9.70;63.60;;;;;;5091222;28;20107;-76
2022/03/09 03:28:30;;;;;;;7.82;2.28;;;9.70;63.60;;;;;;5091199;28;20032;-75
2022/03/09 03:30:56;;;;;;;7.53;2.50;;;9.70;63.60;;;;;;5090702;28;20081;-75
2022/03/09 03:33:23;;;;;;;10.18;2.30;;;9.70;63.60;;;;;;5090876;28;20032;-75
2022/03/09 03:35:49;;;;;;;8.07;2.05;;;9.70;63.60;;;;;;5090283;28;20117;-75
2022/03/09 03:38:16;;;;;;;9.57;2.25;;;9.70;63.70;;;;;;5090610;28;20028;-75
2022/03/09 03:40:43;;;;;;;10.07;2.08;;;9.60;63.50;;;;;;5090486;28;20035;-76
2022/03/09 03:43:09;;;;;;;5.65;2.22;;;9.60;63.60;;;;;;5090221;28;20028;-76
2022/03/09 03:45:36;;;;;;;7.47;2.42;;;9.60;63.60;;;;;;5090630;28;20442;-75
2022/03/09 03:48:03;;;;;;;4.93;2.03;;;9.60;63.60;;;;;;5072102;28;20044;-75
2022/03/09 03:50:29;;;;;;;9.15;2.55;;;9.60;63.70;;;;;;5055541;28;20039;-75
2022/03/09 03:52:54;;;;;;;8.48;2.40;;;9.60;63.60;;;;;;5072505;28;20024;-75
2022/03/09 03:55:21;;;;;;;7.28;1.70;;;9.50;63.50;;;;;;5090340;28;20486;-75
2022/03/09 03:57:47;;;;;;;5.50;2.25;;;9.50;63.50;;;;;;5090622;28;20074;-75
2022/03/09 04:00:13;;;;;;;7.05;1.98;;;9.50;63.60;;;;;;5091863;28;20068;-75
2022/03/09 04:02:39;;;;;;;6.90;1.90;;;9.50;63.60;;;;;;5075099;28;20032;-75
2022/03/09 04:05:06;;;;;;;10.05;3.45;;;9.50;63.60;;;;;;5092459;28;20505;-76
2022/03/09 04:07:33;;;;;;;7.07;1.90;;;9.50;63.70;;;;;;5091796;28;20036;-76
2022/03/09 04:09:59;;;;;;;7.57;2.10;;;9.40;63.50;;;;;;5091252;28;20058;-75
2022/03/09 04:12:25;;;;;;;7.32;2.17;;;9.50;63.70;;;;;;5072592;28;20115;-75
2022/03/09 04:14:52;;;;;;;8.00;1.95;;;9.50;63.70;;;;;;5072322;28;20452;-75
2022/03/09 04:17:18;;;;;;;9.40;2.55;;;9.40;63.50;;;;;;5071843;28;20040;-75
2022/03/09 04:19:44;;;;;;;7.85;2.15;;;9.50;63.80;;;;;;5072174;28;20089;-75
2022/03/09 04:22:10;;;;;;;8.38;2.22;;;9.50;63.80;;;;;;5090137;28;20028;-75
2022/03/09 04:24:37;;;;;;;5.85;2.13;;;9.50;63.80;;;;;;5089783;28;20054;-75
2022/03/09 04:27:04;;;;;;;5.45;1.85;;;9.40;63.60;;;;;;5090159;28;20063;-75
2022/03/09 04:29:29;;;;;;;4.50;2.20;;;9.40;63.60;;;;;;5073752;28;20557;-75
2022/03/09 04:31:55;;;;;;;10.40;2.58;;;9.40;64.20;;;;;;5093944;28;20162;-75
2022/03/09 04:34:21;;;;;;;6.25;1.83;;;9.40;63.60;;;;;;5093966;28;20031;-75
2022/03/09 04:36:47;;;;;;;5.00;2.38;;;9.40;63.70;;;;;;5075573;28;20400;-76
2022/03/09 04:39:14;;;;;;;7.32;2.10;;;9.40;63.60;;;;;;5075499;28;20021;-75
2022/03/09 04:41:40;;;;;;;6.78;2.00;;;9.40;64.20;;;;;;5058939;28;20035;-75
2022/03/09 04:44:06;;;;;;;5.80;1.85;;;9.40;63.70;;;;;;5075672;28;20115;-75
2022/03/09 04:46:31;;;;;;;7.90;1.98;;;9.40;63.70;;;;;;5093363;28;20118;-75
2022/03/09 04:48:57;;;;;;;9.25;2.50;;;9.40;63.80;;;;;;5093641;28;20039;-75
2022/03/09 04:51:23;;;;;;;8.07;2.40;;;9.30;63.60;;;;;;5093443;28;20473;-75
2022/03/09 04:53:49;;;;;;;7.05;2.20;;;9.40;63.80;;;;;;5093412;28;20174;-75
2022/03/09 04:56:15;;;;;;;6.82;1.88;;;9.30;63.60;;;;;;5093286;28;20060;-75
2022/03/09 04:58:41;;;;;;;6.90;2.70;;;9.30;63.60;;;;;;5093386;28;20024;-74
2022/03/09 05:01:07;;;;;;;5.38;2.47;;;9.30;63.70;;;;;;5075260;28;20482;-74
2022/03/09 05:03:34;;;;;;;6.43;2.47;;;9.30;63.70;;;;;;5058630;28;20027;-75
2022/03/09 05:06:01;;;;;;;7.05;2.10;;;9.30;63.70;;;;;;5093343;28;20024;-75
2022/03/09 05:08:27;;;;;;;9.18;2.65;;;9.30;63.80;;;;;;5093215;28;20024;-75
2022/03/09 05:10:53;;;;;;;8.18;2.20;;;9.30;63.80;;;;;;5093354;28;20028;-75
2022/03/09 05:13:20;;;;;;;9.57;3.17;;;9.30;63.80;;;;;;5075223;28;20055;-75
2022/03/09 05:15:47;;;;;;;7.60;2.33;;;9.30;63.80;;;;;;5092986;28;20135;-75
2022/03/09 05:18:13;;;;;;;7.60;2.25;;;9.30;63.80;;;;;;5074882;28;20064;-75
2022/03/09 05:20:38;;;;;;;5.45;1.90;;;9.30;63.80;;;;;;5074999;28;20061;-74
2022/03/09 05:23:04;;;;;;;7.68;2.58;;;9.30;63.80;;;;;;5058508;28;20119;-75
2022/03/09 05:25:30;;;;;;;8.63;2.30;;;9.30;63.90;;;;;;5093060;28;20020;-76
2022/03/09 05:27:56;;;;;;;5.65;2.70;;;9.30;63.90;;;;;;5074993;28;20058;-76
2022/03/09 05:30:22;;;;;;;9.57;3.15;;;9.30;63.90;;;;;;5092634;28;20032;-76
2022/03/09 05:32:48;;;;;;;9.50;2.05;;;9.30;63.90;;;;;;5074865;28;20122;-75
2022/03/09 05:35:14;;;;;;;9.20;2.55;;;9.30;63.80;;;;;;5075085;28;20165;-76
2022/03/09 05:37:42;;;;;;;5.95;2.60;;;9.30;63.90;;;;;;5074419;28;20040;-75
2022/03/09 05:40:09;;;;;;;6.60;2.40;;;9.30;63.90;;;;;;5073896;28;20119;-75
2022/03/09 05:42:36;;;;;;;6.82;1.88;;;9.30;63.90;;;;;;5092117;28;20035;-75
2022/03/09 05:45:04;;;;;;;8.07;2.85;;;9.30;63.90;;;;;;5074713;28;20383;-75
2022/03/09 05:47:30;;;;;;;9.50;2.90;;;9.20;63.70;;;;;;5088943;28;20518;-75
2022/03/09 05:49:56;;;;;;;6.10;2.42;;;9.20;63.70;;;;;;5051012;28;20502;-74
2022/03/09 05:52:42;;;;;;;8.02;2.50;;;9.20;63.70;;;;;;5043531;28;20020;-74
2022/03/09 05:55:09;;;;;;;10.90;2.28;;;9.20;63.70;;;;;;5070520;28;20024;-75
2022/03/09 05:57:35;;;;;;;8.50;3.20;;;9.20;63.70;;;;;;5089169;28;20051;-74
2022/03/09 06:00:02;;;;;;;7.03;2.40;;;9.20;63.80;;;;;;5065323;28;20035;-75
2022/03/09 06:02:37;;;;;;;6.18;3.08;;;9.20;63.80;;;;;;5083508;28;20479;-75
2022/03/09 06:05:03;;;;;;;10.07;2.92;;;9.20;63.80;;;;;;5088620;28;20031;-75
2022/03/09 06:07:31;;;;;;;9.38;2.55;;;9.20;63.80;;;;;;5088476;28;20020;-75
2022/03/09 06:09:57;;;;;;;6.00;2.10;;;9.30;64.00;;;;;;5088268;28;20034;-75
2022/03/09 06:12:23;;;;;;;6.38;2.10;;;9.20;63.70;;;;;;5067812;28;20051;-75
2022/03/09 06:14:50;;;;;;;9.68;2.50;;;9.20;63.70;;;;;;5070853;28;20035;-75
2022/03/09 06:17:16;;;;;;;6.38;2.33;;;9.30;63.90;;;;;;5088569;28;20036;-74
2022/03/09 06:19:42;;;;;;;7.63;2.85;;;9.30;63.90;;;;;;5067930;28;20383;-75
2022/03/09 06:22:08;;;;;;;9.48;3.08;;;9.20;63.70;;;;;;5084125;28;20081;-74
2022/03/09 06:24:34;;;;;;;9.82;2.00;;;9.30;63.90;;;;;;5070347;28;20047;-75
2022/03/09 06:27:00;;;;;;;9.43;2.10;;;9.30;63.90;;;;;;5088358;28;20178;-74
2022/03/09 06:29:26;;;;;;;10.73;2.65;;;9.30;63.90;;;;;;5087663;28;20119;-74
2022/03/09 06:31:52;;;;;;;8.35;2.15;;;9.30;63.90;;;;;;5087973;28;20031;-75
2022/03/09 06:34:18;;;;;;;9.95;1.70;;;9.30;63.90;;;;;;5070024;28;20379;-73
2022/03/09 06:36:45;;;;;;;5.13;2.15;;;9.30;63.90;;;;;;5081703;28;20105;-72
2022/03/09 06:39:16;;;;;;;8.00;2.00;;;9.30;63.90;;;;;;5082983;28;20868;-73
2022/03/09 06:41:44;;;;;;;8.40;2.72;;;9.30;63.90;;;;;;5047172;28;20032;-77
2022/03/09 06:44:12;;;;;;;10.68;2.35;;;9.30;63.90;;;;;;5071561;28;20042;-80
2022/03/09 06:46:38;;;;;;;6.78;1.55;;;9.30;63.90;;;;;;5061314;28;20091;-83
2022/03/09 06:49:05;;;;;;;10.15;2.13;;;9.30;64.10;;;;;;5089104;28;20028;-89
2022/03/09 06:51:31;;;;;;;8.65;2.38;;;9.40;64.60;;;;;;5081571;28;20375;-94
2022/03/09 06:53:57;;;;;;;6.75;2.17;;;9.40;64.70;;;;;;5085383;28;20035;-85
2022/03/09 06:56:23;;;;;;;9.88;2.50;;;9.50;65.00;;;;;;5075559;28;20131;-87
2022/03/09 06:58:49;;;;;;;10.85;2.70;;;9.60;65.30;;;;;;5069116;28;20028;-85
2022/03/09 07:01:15;;;;;;;5.88;1.83;;;9.60;65.50;;;;;;5068019;28;20093;-83
2022/03/09 07:03:41;;;;;;;7.55;1.90;;;9.70;66.30;;;;;;5073625;28;20388;-83
2022/03/09 07:06:07;;;;;;;10.60;3.22;;;9.80;66.10;;;;;;5079865;28;20029;-76
2022/03/09 07:08:33;;;;;;;7.82;2.05;;;9.80;66.20;;;;;;5079730;28;20032;-76
2022/03/09 07:10:59;;;;;;;8.80;2.35;;;10.00;66.60;;;;;;5072158;28;20029;-76
2022/03/09 07:13:26;;;;;;;5.53;1.60;;;10.10;66.80;;;;;;5054773;28;20086;-75
2022/03/09 07:15:52;;;;;;;9.30;2.00;;;10.20;67.10;;;;;;5071630;28;20035;-83
2022/03/09 07:18:18;;;;;;;6.20;1.63;;;10.20;67.10;;;;;;5059597;28;20058;-77
2022/03/09 07:20:44;;;;;;;10.63;2.28;;;10.30;67.30;;;;;;5081599;28;20036;-73
2022/03/09 07:23:10;;;;;;;9.90;2.95;;;10.40;67.50;;;;;;5085484;28;20355;-73
2022/03/09 07:25:36;;;;;;;10.40;3.05;;;10.50;67.70;;;;;;5052462;28;20024;-74
2022/03/09 07:28:02;;;;;;;9.70;2.03;;;10.60;67.80;;;;;;5077101;28;20047;-73
2022/03/09 07:30:29;;;;;;;6.80;1.70;;;10.70;68.00;;;;;;5079041;28;20119;-81
2022/03/09 07:32:54;;;;;;;11.45;2.92;;;10.80;68.20;;;;;;5065330;28;20289;-77
2022/03/09 07:35:21;;;;;;;9.80;3.90;;;10.90;68.30;;;;;;5086919;28;20136;-77
2022/03/09 07:37:50;;;;;;;13.77;2.38;;;10.90;68.30;;;;;;5089319;28;20040;-76
2022/03/09 07:40:16;;;;;;;11.68;2.47;;;11.00;68.40;;;;;;5107565;28;20030;-75
2022/03/09 07:42:42;;;;;;;12.25;2.88;;;11.10;68.50;;;;;;5093765;28;20092;-86
2022/03/09 07:45:08;;;;;;;14.60;4.03;;;11.20;68.70;;;;;;5080386;28;20364;-77
2022/03/09 07:47:36;;;;;;;11.32;2.58;;;11.30;68.90;;;;;;5086354;28;20050;-78
2022/03/09 07:50:03;;;;;;;12.10;4.10;;;11.40;69.10;;;;;;5068995;28;20034;-78
2022/03/09 07:52:30;;;;;;;7.90;2.85;;;11.50;69.20;;;;;;5087232;28;20449;-78
2022/03/09 07:54:56;;;;;;;6.75;2.08;;;11.60;69.40;;;;;;5068283;28;20028;-78
2022/03/09 07:57:21;;;;;;;10.15;2.72;;;11.70;69.60;;;;;;5084740;28;20058;-77
2022/03/09 07:59:47;;;;;;;12.90;2.47;;;11.80;69.60;;;;;;5067306;28;20033;-78
2022/03/09 08:02:13;;;;;;;9.95;4.07;;;11.90;69.60;;;;;;5082077;28;20047;-78
2022/03/09 08:04:39;;;;;;;6.88;2.30;;;12.00;69.70;;;;;;5071375;28;20483;-78
2022/03/09 08:07:05;;;;;;;8.45;1.75;;;12.20;69.80;;;;;;5073602;28;20090;-77
2022/03/09 08:09:31;;;;;;;11.30;3.65;;;12.40;69.90;;;;;;5091889;28;20051;-80
2022/03/09 08:11:57;;;;;;;8.88;2.08;;;12.50;69.70;;;;;;5058742;28;20043;-77
2022/03/09 08:14:23;;;;;;;8.85;1.63;;;12.70;69.90;;;;;;5067290;28;20021;-78
2022/03/09 08:16:49;;;;;;;11.60;2.40;;;12.80;69.70;;;;;;5063139;28;20415;-77
2022/03/09 08:19:15;;;;;;;6.88;2.03;;;13.00;69.80;;;;;;5090495;28;20354;-79
2022/03/09 08:21:41;;;;;;;7.50;1.77;;;13.20;70.00;;;;;;5075411;28;20575;-75
2022/03/09 08:24:07;;;;;;;11.30;1.67;;;13.30;70.00;;;;;;5075293;28;20027;-75
2022/03/09 08:26:33;;;;;;;5.50;1.90;;;13.50;70.10;;;;;;5075287;28;20032;-75
2022/03/09 08:28:59;;;;;;;7.85;1.60;;;13.80;70.30;;;;;;5093698;28;20111;-87
2022/03/09 08:31:26;;;;;;;7.82;1.75;;;14.00;70.20;;;;;;5094120;28;20234;-87
2022/03/09 08:33:52;;;;;;;9.43;2.00;;;14.10;70.00;;;;;;5076030;28;20093;-83
2022/03/09 08:36:18;;;;;;;5.53;1.52;;;14.40;70.00;;;;;;5075178;28;20058;-84
2022/03/09 08:38:44;;;;;;;6.47;1.80;;;14.50;69.80;;;;;;5075700;28;20035;-86
2022/03/09 08:41:10;;;;;;;4.05;1.98;;;14.70;69.80;;;;;;5093456;28;20592;-79
2022/03/09 08:43:35;;;;;;;8.55;1.55;;;14.80;69.60;;;;;;5092327;28;20020;-84
2022/03/09 08:46:01;;;;;;;6.40;1.50;;;14.90;69.40;;;;;;5074777;28;20490;-80
2022/03/09 08:48:28;;;;;;;6.75;1.88;;;15.10;69.90;;;;;;5091910;28;20510;-78
2022/03/09 08:50:54;;;;;;;6.75;1.30;;;15.20;69.20;;;;;;5075518;28;20092;-78
2022/03/09 08:53:21;;;;;;;7.65;1.83;;;15.30;68.90;;;;;;5075227;28;20480;-79
2022/03/09 08:55:48;;;;;;;7.53;2.00;;;15.40;68.80;;;;;;5075267;28;20035;-78
2022/03/09 08:58:14;;;;;;;6.05;1.77;;;15.50;68.60;;;;;;5058568;28;20032;-76
2022/03/09 09:00:41;;;;;;;5.95;1.67;;;15.60;68.30;;;;;;5093372;28;20024;-76
2022/03/09 09:03:07;;;;;;;4.82;1.13;;;15.80;68.80;;;;;;5074217;28;20039;-78
2022/03/09 09:05:32;;;;;;;6.22;1.77;;;15.90;68.00;;;;;;5092199;28;20032;-79
2022/03/09 09:07:59;;;;;;;5.43;1.02;;;16.00;67.70;;;;;;5092987;28;20028;-76
2022/03/09 09:10:25;;;;;;;4.75;1.30;;;16.20;67.70;;;;;;5093213;28;20386;-79
2022/03/09 09:12:51;;;;;;;3.45;1.10;;;16.30;67.40;;;;;;5093379;28;20347;-76
2022/03/09 09:15:17;;;;;;;5.25;1.92;;;16.50;67.30;;;;;;5091804;28;20028;-77
2022/03/09 09:17:43;;;;;;;2.75;1.40;;;16.60;67.00;;;;;;5071332;28;20039;-76
2022/03/09 09:20:10;;;;;;;3.55;1.50;;;16.80;66.90;;;;;;5072153;28;20050;-77
2022/03/09 09:22:37;;;;;;;6.85;1.95;;;17.00;66.80;;;;;;5088005;28;20035;-76
2022/03/09 09:25:03;;;;;;;10.10;2.90;;;17.10;66.40;;;;;;5079947;28;20391;-77
2022/03/09 09:27:29;;;;;;;5.43;1.55;;;17.20;66.10;;;;;;5050914;28;20035;-75
2022/03/09 09:29:55;;;;;;;5.25;1.75;;;17.30;65.90;;;;;;5052425;28;20028;-76
2022/03/09 09:32:21;;;;;;;6.43;1.50;;;17.40;65.70;;;;;;5051508;28;20028;-75
2022/03/09 09:34:47;;;;;;;3.42;1.33;;;17.50;65.60;;;;;;5069144;28;20063;-75
2022/03/09 09:37:13;;;;;;;4.10;1.00;;;17.50;65.30;;;;;;5069281;28;20478;-77
2022/03/09 09:39:39;;;;;;;4.68;1.38;;;17.50;65.00;;;;;;5084837;28;20028;-76
2022/03/09 09:42:05;;;;;;;4.65;1.20;;;17.60;65.10;;;;;;5091695;28;20563;-75
2022/03/09 09:44:31;;;;;;;6.53;1.45;;;17.60;64.90;;;;;;5110120;28;20031;-75
2022/03/09 09:46:58;;;;;;;6.18;1.80;;;17.70;64.80;;;;;;5091259;28;20281;-76
2022/03/09 09:49:24;;;;;;;5.07;1.52;;;17.80;65.10;;;;;;5109351;28;20027;-75
2022/03/09 09:51:51;;;;;;;5.15;1.55;;;17.90;64.40;;;;;;5109183;28;20390;-81
2022/03/09 09:54:18;;;;;;;5.13;1.30;;;18.10;64.30;;;;;;5091011;28;20030;-75
2022/03/09 09:56:44;;;;;;;5.13;1.80;;;18.10;63.90;;;;;;5091344;28;20078;-75
2022/03/09 09:59:11;;;;;;;4.20;1.20;;;18.20;63.70;;;;;;5108924;28;20040;-77
2022/03/09 10:01:38;;;;;;;3.97;1.70;;;18.20;63.50;;;;;;5090524;28;20437;-74
2022/03/09 10:04:06;;;;;;;3.40;0.98;;;18.10;63.20;;;;;;5091206;28;20027;-76
2022/03/09 10:06:33;;;;;;;5.40;1.52;;;18.20;63.30;;;;;;5110851;28;20281;-82
2022/03/09 10:09:11;;;;;;;5.78;2.05;;;18.20;63.20;;;;;;5093373;28;20038;-78
2022/03/09 10:11:51;;;;;;;3.10;1.55;;;18.20;62.90;;;;;;5111515;28;20034;-76
2022/03/09 10:14:38;;;;;;;6.68;1.27;;;18.20;62.80;;;;;;5107006;28;20035;-77
2022/03/09 10:17:07;;;;;;;5.75;1.77;;;18.20;62.90;;;;;;5090652;28;20036;-91
2022/03/09 10:19:36;;;;;;;6.18;1.65;;;18.20;62.80;;;;;;5088501;28;20394;-81
2022/03/09 10:22:23;;;;;;;5.53;2.35;;;18.30;62.80;;;;;;5109740;28;20054;-81
2022/03/09 10:24:50;;;;;;;6.38;3.22;;;18.30;62.50;;;;;;5091776;28;20062;-81
2022/03/09 10:27:33;;;;;;;5.50;1.80;;;18.50;62.80;;;;;;5090704;28;20360;-81
2022/03/09 10:30:00;;;;;;;4.25;1.67;;;18.60;62.40;;;;;;5109541;28;20027;-78
2022/03/09 10:32:46;;;;;;;8.32;2.67;;;18.60;62.30;;;;;;5091232;28;20045;-77
2022/03/09 10:35:15;;;;;;;4.93;1.65;;;18.80;62.10;;;;;;5077173;28;20043;-78
2022/03/09 10:37:42;;;;;;;4.55;1.75;;;18.90;62.20;;;;;;5051347;28;20227;-75
2022/03/09 10:40:13;;;;;;;3.53;1.40;;;18.80;61.90;;;;;;5087922;28;20028;-73
2022/03/09 10:42:40;;;;;;;4.28;2.03;;;18.70;61.70;;;;;;5088886;28;20421;-73
2022/03/09 10:45:08;;;;;;;12.32;3.38;;;18.60;61.60;;;;;;5054840;28;20635;-73
2022/03/09 10:47:41;;;;;;;5.53;1.35;;;18.60;61.70;;;;;;5067237;28;20044;-73
2022/03/09 10:50:25;;;;;;;6.95;1.85;;;18.50;61.60;;;;;;5051295;28;20094;-73
2022/03/09 10:52:57;;;;;;;5.47;1.40;;;18.50;61.50;;;;;;5068416;28;20028;-73
2022/03/09 10:55:32;;;;;;;6.10;1.95;;;18.40;61.60;;;;;;5068127;28;20028;-73
2022/03/09 10:58:17;;;;;;;5.93;2.03;;;18.40;61.70;;;;;;5068321;28;20071;-73
2022/03/09 11:00:45;;;;;;;8.23;1.75;;;18.40;61.50;;;;;;5068055;28;20535;-73
2022/03/09 11:03:15;;;;;;;5.20;1.70;;;18.30;61.50;;;;;;5067256;28;20044;-74
2022/03/09 11:05:51;;;;;;;7.18;2.38;;;18.30;61.60;;;;;;5067118;28;20024;-74
2022/03/09 11:08:20;;;;;;;6.57;2.10;;;18.30;61.40;;;;;;5073212;28;20398;-73
2022/03/09 11:10:47;;;;;;;5.43;1.95;;;18.30;61.40;;;;;;5087571;28;20383;-73
2022/03/09 11:13:16;;;;;;;5.97;1.75;;;18.40;61.50;;;;;;5086716;28;20283;-73
2022/03/09 11:15:43;;;;;;;6.65;1.80;;;18.40;61.40;;;;;;5068772;28;20114;-74
2022/03/09 11:18:19;;;;;;;6.15;1.48;;;18.40;61.30;;;;;;5067201;28;20036;-76
2022/03/09 11:20:46;;;;;;;5.40;1.60;;;18.40;61.30;;;;;;5066309;28;20033;-74
2022/03/09 11:23:17;;;;;;;5.82;1.73;;;18.40;61.30;;;;;;5067593;28;20024;-77
2022/03/09 11:25:59;;;;;;;6.22;1.67;;;18.40;61.20;;;;;;5067600;28;20063;-75
2022/03/09 11:28:28;;;;;;;5.82;1.80;;;18.40;61.10;;;;;;5066087;28;20032;-75
2022/03/09 11:31:01;;;;;;;6.68;1.67;;;18.40;61.20;;;;;;5065808;28;20089;-76
2022/03/09 11:33:48;;;;;;;8.65;1.95;;;18.40;61.20;;;;;;5066913;28;20033;-76
2022/03/09 11:36:24;;;;;;;3.60;2.00;;;18.50;61.10;;;;;;5065672;28;20039;-76
2022/03/09 11:38:52;;;;;;;7.82;1.75;;;18.60;61.10;;;;;;5066494;28;20029;-76
2022/03/09 11:41:27;;;;;;;5.43;2.00;;;18.60;61.00;;;;;;5066772;28;20111;-75
2022/03/09 11:44:14;;;;;;;4.55;1.75;;;18.60;60.90;;;;;;5067320;28;20029;-76
2022/03/09 11:47:00;;;;;;;5.00;1.55;;;18.60;61.00;;;;;;5072780;28;20129;-76
2022/03/09 11:49:33;;;;;;;4.75;1.23;;;18.70;60.90;;;;;;5068052;28;20028;-76
2022/03/09 11:52:07;;;;;;;4.55;1.52;;;18.80;61.00;;;;;;5087495;28;20792;-75
2022/03/09 11:54:44;;;;;;;6.07;1.98;;;18.90;60.90;;;;;;5087161;28;20097;-76
2022/03/09 11:57:12;;;;;;;5.55;1.67;;;19.10;60.90;;;;;;5068660;28;20047;-75
2022/03/09 11:59:38;;;;;;;5.47;2.00;;;19.20;61.40;;;;;;5103661;28;20031;-76
2022/03/09 12:02:12;;;;;;;5.85;1.88;;;19.30;60.80;;;;;;5089224;28;20380;-80
2022/03/09 12:04:53;;;;;;;6.97;1.77;;;19.40;61.30;;;;;;5106767;28;20012;-75
2022/03/09 12:07:33;;;;;;;13.40;2.50;;;19.50;60.70;;;;;;5107404;28;20402;-77
2022/03/09 12:10:06;;;;;;;2.55;1.10;;;19.70;60.70;;;;;;5107009;28;20028;-75
2022/03/09 12:12:33;;;;;;;4.45;1.73;;;19.80;60.60;;;;;;5107240;28;20023;-76
2022/03/09 12:15:13;;;;;;;5.13;1.80;;;19.90;60.50;;;;;;5107037;28;20057;-76
2022/03/09 12:17:49;;;;;;;7.28;1.67;;;20.00;60.20;;;;;;5107353;28;20135;-77
2022/03/09 12:20:15;;;;;;;5.45;1.63;;;20.10;60.30;;;;;;5107385;28;20027;-76
2022/03/09 12:22:59;;;;;;;4.18;1.98;;;20.10;60.10;;;;;;5088957;28;20398;-74
2022/03/09 12:25:41;;;;;;;4.15;1.38;;;20.20;60.00;;;;;;5088625;28;20073;-77
2022/03/09 12:28:32;;;;;;;4.25;1.70;;;20.10;59.80;;;;;;5106641;28;20048;-74
2022/03/09 12:30:57;;;;;;;6.15;1.90;;;20.20;59.90;;;;;;5089077;28;20028;-75
2022/03/09 12:33:30;;;;;;;3.67;1.23;;;20.20;60.00;;;;;;5107075;28;20402;-77
2022/03/09 12:36:13;;;;;;;3.03;1.27;;;20.20;59.80;;;;;;5107350;28;20028;-75
2022/03/09 12:39:08;;;;;;;5.40;1.90;;;20.30;59.80;;;;;;5071979;28;20039;-76
2022/03/09 12:41:42;;;;;;;4.78;1.38;;;20.30;59.80;;;;;;5088260;28;20068;-76
2022/03/09 12:44:13;;;;;;;6.72;1.95;;;20.30;59.90;;;;;;5107153;28;20094;-74
2022/03/09 12:46:41;;;;;;;5.07;1.60;;;20.30;59.90;;;;;;5107048;28;20415;-75
2022/03/09 12:49:16;;;;;;;5.43;1.95;;;20.30;60.00;;;;;;5106229;28;20122;-77
2022/03/09 12:51:50;;;;;;;6.72;1.30;;;20.40;60.10;;;;;;5110812;28;20568;-76